sensor_id;sensor_type;location;lat;lon;timestamp;P1;durP1;ratioP1;P2;durP2;ratioP2
27744;SDS011;61387;48.112;8.616;2022-09-03T00:02:03;10.80;;;8.20;;
27744;SDS011;61387;48.112;8.616;2022-09-03T00:05:17;11.60;;;8.20;;
27744;SDS011;61387;48.112;8.616;2022-09-03T00:13:02;10.17;;;6.27;;
27744;SDS011;61387;48.112;8.616;2022-09-03T00:15:32;9.77;;;6.73;;
27744;SDS011;61387;48.112;8.616;2022-09-03T00:18:21;9.87;;;6.53;;
27744;SDS011;61387;48.112;8.616;2022-09-03T00:20:49;8.20;;;6.70;;
27744;SDS011;61387;48.112;8.616;2022-09-03T00:23:21;10.50;;;7.80;;
27744;SDS011;61387;48.112;8.616;2022-09-03T00:28:34;11.67;;;7.43;;
27744;SDS011;61387;48.112;8.616;2022-09-03T00:33:34;11.53;;;7.47;;
27744;SDS011;61387;48.112;8.616;2022-09-03T00:38:59;9.60;;;7.33;;
27744;SDS011;61387;48.112;8.616;2022-09-03T00:41:35;8.10;;;6.40;;
27744;SDS011;61387;48.112;8.616;2022-09-03T00:46:58;8.47;;;6.43;;
27744;SDS011;61387;48.112;8.616;2022-09-03T00:52:12;8.57;;;6.60;;
27744;SDS011;61387;48.112;8.616;2022-09-03T01:00:11;9.03;;;6.70;;
27744;SDS011;61387;48.112;8.616;2022-09-03T01:02:41;8.80;;;7.10;;
27744;SDS011;61387;48.112;8.616;2022-09-03T01:08:08;8.60;;;5.90;;
27744;SDS011;61387;48.112;8.616;2022-09-03T01:11:07;8.43;;;6.07;;
27744;SDS011;61387;48.112;8.616;2022-09-03T01:16:56;9.20;;;6.53;;
27744;SDS011;61387;48.112;8.616;2022-09-03T01:25:49;7.90;;;6.40;;
27744;SDS011;61387;48.112;8.616;2022-09-03T01:30:44;8.87;;;6.63;;
27744;SDS011;61387;48.112;8.616;2022-09-03T01:35:49;8.37;;;5.83;;
27744;SDS011;61387;48.112;8.616;2022-09-03T01:41:18;8.40;;;6.40;;
27744;SDS011;61387;48.112;8.616;2022-09-03T01:44:20;9.30;;;6.57;;
27744;SDS011;61387;48.112;8.616;2022-09-03T01:47:05;8.63;;;6.27;;
27744;SDS011;61387;48.112;8.616;2022-09-03T01:49:56;7.63;;;5.97;;
27744;SDS011;61387;48.112;8.616;2022-09-03T01:52:45;8.40;;;6.17;;
27744;SDS011;61387;48.112;8.616;2022-09-03T01:55:33;8.27;;;6.60;;
27744;SDS011;61387;48.112;8.616;2022-09-03T01:58:32;9.40;;;6.10;;
27744;SDS011;61387;48.112;8.616;2022-09-03T02:01:06;7.60;;;5.40;;
27744;SDS011;61387;48.112;8.616;2022-09-03T02:03:39;7.20;;;5.87;;
27744;SDS011;61387;48.112;8.616;2022-09-03T02:06:09;6.80;;;5.40;;
27744;SDS011;61387;48.112;8.616;2022-09-03T02:08:35;10.13;;;6.10;;
27744;SDS011;61387;48.112;8.616;2022-09-03T02:11:02;7.77;;;6.27;;
27744;SDS011;61387;48.112;8.616;2022-09-03T02:13:37;9.27;;;6.20;;
27744;SDS011;61387;48.112;8.616;2022-09-03T02:16:13;8.37;;;6.37;;
27744;SDS011;61387;48.112;8.616;2022-09-03T02:18:44;8.60;;;6.10;;
27744;SDS011;61387;48.112;8.616;2022-09-03T02:21:14;7.90;;;6.00;;
27744;SDS011;61387;48.112;8.616;2022-09-03T02:23:43;7.57;;;5.23;;
27744;SDS011;61387;48.112;8.616;2022-09-03T02:26:10;9.20;;;5.40;;
27744;SDS011;61387;48.112;8.616;2022-09-03T02:28:37;9.83;;;5.53;;
27744;SDS011;61387;48.112;8.616;2022-09-03T02:31:03;7.87;;;6.03;;
27744;SDS011;61387;48.112;8.616;2022-09-03T02:33:30;8.53;;;5.33;;
27744;SDS011;61387;48.112;8.616;2022-09-03T02:35:59;7.67;;;5.00;;
27744;SDS011;61387;48.112;8.616;2022-09-03T02:38:25;7.23;;;5.13;;
27744;SDS011;61387;48.112;8.616;2022-09-03T02:40:52;6.67;;;5.10;;
27744;SDS011;61387;48.112;8.616;2022-09-03T02:43:36;8.77;;;5.13;;
27744;SDS011;61387;48.112;8.616;2022-09-03T02:46:06;7.37;;;4.97;;
27744;SDS011;61387;48.112;8.616;2022-09-03T02:48:36;8.27;;;5.33;;
27744;SDS011;61387;48.112;8.616;2022-09-03T02:51:02;9.00;;;5.53;;
27744;SDS011;61387;48.112;8.616;2022-09-03T02:53:28;7.47;;;5.47;;
27744;SDS011;61387;48.112;8.616;2022-09-03T02:56:00;10.00;;;5.60;;
27744;SDS011;61387;48.112;8.616;2022-09-03T02:58:26;8.63;;;5.47;;
27744;SDS011;61387;48.112;8.616;2022-09-03T03:00:53;9.07;;;5.97;;
27744;SDS011;61387;48.112;8.616;2022-09-03T03:03:19;7.90;;;5.93;;
27744;SDS011;61387;48.112;8.616;2022-09-03T03:05:52;10.60;;;6.40;;
27744;SDS011;61387;48.112;8.616;2022-09-03T03:08:20;8.60;;;6.43;;
27744;SDS011;61387;48.112;8.616;2022-09-03T03:10:50;7.73;;;6.30;;
27744;SDS011;61387;48.112;8.616;2022-09-03T03:13:16;8.83;;;5.93;;
27744;SDS011;61387;48.112;8.616;2022-09-03T03:15:42;10.23;;;6.60;;
27744;SDS011;61387;48.112;8.616;2022-09-03T03:18:09;9.37;;;6.43;;
27744;SDS011;61387;48.112;8.616;2022-09-03T03:20:36;9.57;;;6.87;;
27744;SDS011;61387;48.112;8.616;2022-09-03T03:23:03;9.77;;;7.33;;
27744;SDS011;61387;48.112;8.616;2022-09-03T03:25:38;9.77;;;7.30;;
27744;SDS011;61387;48.112;8.616;2022-09-03T03:28:04;11.50;;;7.37;;
27744;SDS011;61387;48.112;8.616;2022-09-03T03:30:31;9.53;;;7.13;;
27744;SDS011;61387;48.112;8.616;2022-09-03T03:32:58;10.10;;;7.43;;
27744;SDS011;61387;48.112;8.616;2022-09-03T03:35:25;10.80;;;7.87;;
27744;SDS011;61387;48.112;8.616;2022-09-03T03:37:51;11.53;;;8.13;;
27744;SDS011;61387;48.112;8.616;2022-09-03T03:40:16;9.73;;;7.93;;
27744;SDS011;61387;48.112;8.616;2022-09-03T03:42:44;10.57;;;7.80;;
27744;SDS011;61387;48.112;8.616;2022-09-03T03:45:10;10.60;;;7.93;;
27744;SDS011;61387;48.112;8.616;2022-09-03T03:47:36;9.07;;;6.90;;
27744;SDS011;61387;48.112;8.616;2022-09-03T03:50:02;12.50;;;8.00;;
27744;SDS011;61387;48.112;8.616;2022-09-03T03:52:28;10.67;;;7.87;;
27744;SDS011;61387;48.112;8.616;2022-09-03T03:54:54;10.17;;;7.27;;
27744;SDS011;61387;48.112;8.616;2022-09-03T03:57:21;10.90;;;8.10;;
27744;SDS011;61387;48.112;8.616;2022-09-03T03:59:47;10.33;;;7.60;;
27744;SDS011;61387;48.112;8.616;2022-09-03T04:02:13;9.67;;;7.20;;
27744;SDS011;61387;48.112;8.616;2022-09-03T04:04:40;9.87;;;7.90;;
27744;SDS011;61387;48.112;8.616;2022-09-03T04:07:06;11.47;;;8.30;;
27744;SDS011;61387;48.112;8.616;2022-09-03T04:09:32;9.93;;;7.97;;
27744;SDS011;61387;48.112;8.616;2022-09-03T04:11:58;8.77;;;6.87;;
27744;SDS011;61387;48.112;8.616;2022-09-03T04:14:24;12.43;;;8.13;;
27744;SDS011;61387;48.112;8.616;2022-09-03T04:16:51;8.50;;;6.80;;
27744;SDS011;61387;48.112;8.616;2022-09-03T04:19:17;14.10;;;7.13;;
27744;SDS011;61387;48.112;8.616;2022-09-03T04:21:43;9.03;;;7.20;;
27744;SDS011;61387;48.112;8.616;2022-09-03T04:24:09;9.70;;;7.53;;
27744;SDS011;61387;48.112;8.616;2022-09-03T04:26:35;10.50;;;7.20;;
27744;SDS011;61387;48.112;8.616;2022-09-03T04:29:05;10.17;;;6.90;;
27744;SDS011;61387;48.112;8.616;2022-09-03T04:31:32;10.37;;;7.70;;
27744;SDS011;61387;48.112;8.616;2022-09-03T04:33:59;9.33;;;7.07;;
27744;SDS011;61387;48.112;8.616;2022-09-03T04:36:26;10.10;;;7.60;;
27744;SDS011;61387;48.112;8.616;2022-09-03T04:38:53;11.00;;;7.83;;
27744;SDS011;61387;48.112;8.616;2022-09-03T04:41:21;10.23;;;7.80;;
27744;SDS011;61387;48.112;8.616;2022-09-03T04:43:49;12.00;;;7.77;;
27744;SDS011;61387;48.112;8.616;2022-09-03T04:46:15;11.83;;;8.87;;
27744;SDS011;61387;48.112;8.616;2022-09-03T04:48:41;13.53;;;9.13;;
27744;SDS011;61387;48.112;8.616;2022-09-03T04:51:14;13.60;;;9.47;;
27744;SDS011;61387;48.112;8.616;2022-09-03T04:53:42;15.80;;;10.60;;
27744;SDS011;61387;48.112;8.616;2022-09-03T04:56:20;12.57;;;10.17;;
27744;SDS011;61387;48.112;8.616;2022-09-03T04:58:48;16.47;;;11.83;;
27744;SDS011;61387;48.112;8.616;2022-09-03T05:01:21;15.33;;;11.00;;
27744;SDS011;61387;48.112;8.616;2022-09-03T05:03:48;15.50;;;10.90;;
27744;SDS011;61387;48.112;8.616;2022-09-03T05:06:18;13.93;;;10.77;;
27744;SDS011;61387;48.112;8.616;2022-09-03T05:08:50;16.50;;;11.30;;
27744;SDS011;61387;48.112;8.616;2022-09-03T05:11:17;15.23;;;11.13;;
27744;SDS011;61387;48.112;8.616;2022-09-03T05:13:45;18.10;;;11.80;;
27744;SDS011;61387;48.112;8.616;2022-09-03T05:16:13;15.67;;;11.97;;
27744;SDS011;61387;48.112;8.616;2022-09-03T05:18:39;13.33;;;10.87;;
27744;SDS011;61387;48.112;8.616;2022-09-03T05:21:10;13.23;;;10.47;;
27744;SDS011;61387;48.112;8.616;2022-09-03T05:23:38;15.83;;;10.87;;
27744;SDS011;61387;48.112;8.616;2022-09-03T05:26:07;14.07;;;11.10;;
27744;SDS011;61387;48.112;8.616;2022-09-03T05:28:38;14.37;;;10.70;;
27744;SDS011;61387;48.112;8.616;2022-09-03T05:31:05;15.60;;;11.10;;
27744;SDS011;61387;48.112;8.616;2022-09-03T05:33:40;14.83;;;10.73;;
27744;SDS011;61387;48.112;8.616;2022-09-03T05:36:11;15.17;;;10.53;;
27744;SDS011;61387;48.112;8.616;2022-09-03T05:38:38;15.10;;;11.10;;
27744;SDS011;61387;48.112;8.616;2022-09-03T05:41:06;14.63;;;10.37;;
27744;SDS011;61387;48.112;8.616;2022-09-03T05:43:33;15.00;;;10.23;;
27744;SDS011;61387;48.112;8.616;2022-09-03T05:46:03;13.50;;;9.67;;
27744;SDS011;61387;48.112;8.616;2022-09-03T05:48:31;12.20;;;8.60;;
27744;SDS011;61387;48.112;8.616;2022-09-03T05:51:02;13.13;;;9.17;;
27744;SDS011;61387;48.112;8.616;2022-09-03T05:53:29;11.73;;;8.40;;
27744;SDS011;61387;48.112;8.616;2022-09-03T05:55:57;10.83;;;8.03;;
27744;SDS011;61387;48.112;8.616;2022-09-03T05:58:23;11.70;;;8.00;;
27744;SDS011;61387;48.112;8.616;2022-09-03T06:00:50;10.00;;;7.40;;
27744;SDS011;61387;48.112;8.616;2022-09-03T06:03:16;10.00;;;7.57;;
27744;SDS011;61387;48.112;8.616;2022-09-03T06:05:51;9.90;;;7.50;;
27744;SDS011;61387;48.112;8.616;2022-09-03T06:08:19;9.87;;;7.33;;
27744;SDS011;61387;48.112;8.616;2022-09-03T06:10:45;9.80;;;7.27;;
27744;SDS011;61387;48.112;8.616;2022-09-03T06:13:11;10.40;;;6.77;;
27744;SDS011;61387;48.112;8.616;2022-09-03T06:15:37;9.37;;;6.50;;
27744;SDS011;61387;48.112;8.616;2022-09-03T06:18:03;9.00;;;6.87;;
27744;SDS011;61387;48.112;8.616;2022-09-03T06:20:29;8.97;;;7.00;;
27744;SDS011;61387;48.112;8.616;2022-09-03T06:22:56;12.43;;;6.87;;
27744;SDS011;61387;48.112;8.616;2022-09-03T06:25:22;9.07;;;6.87;;
27744;SDS011;61387;48.112;8.616;2022-09-03T06:27:48;8.00;;;6.20;;
27744;SDS011;61387;48.112;8.616;2022-09-03T06:30:14;8.43;;;6.50;;
27744;SDS011;61387;48.112;8.616;2022-09-03T06:32:51;7.87;;;6.00;;
27744;SDS011;61387;48.112;8.616;2022-09-03T06:37:47;9.23;;;6.03;;
27744;SDS011;61387;48.112;8.616;2022-09-03T06:40:13;7.10;;;4.90;;
27744;SDS011;61387;48.112;8.616;2022-09-03T06:42:53;6.10;;;4.53;;
27744;SDS011;61387;48.112;8.616;2022-09-03T06:45:26;6.97;;;4.60;;
27744;SDS011;61387;48.112;8.616;2022-09-03T06:47:53;6.33;;;4.40;;
27744;SDS011;61387;48.112;8.616;2022-09-03T06:50:19;6.47;;;4.40;;
27744;SDS011;61387;48.112;8.616;2022-09-03T06:52:49;6.30;;;4.03;;
27744;SDS011;61387;48.112;8.616;2022-09-03T06:55:17;8.33;;;4.60;;
27744;SDS011;61387;48.112;8.616;2022-09-03T06:57:42;7.37;;;4.27;;
27744;SDS011;61387;48.112;8.616;2022-09-03T07:00:09;6.00;;;4.10;;
27744;SDS011;61387;48.112;8.616;2022-09-03T07:02:35;6.33;;;3.90;;
27744;SDS011;61387;48.112;8.616;2022-09-03T07:05:01;7.20;;;4.50;;
27744;SDS011;61387;48.112;8.616;2022-09-03T07:07:27;6.87;;;3.80;;
27744;SDS011;61387;48.112;8.616;2022-09-03T07:09:53;5.70;;;3.77;;
27744;SDS011;61387;48.112;8.616;2022-09-03T07:12:19;6.80;;;3.90;;
27744;SDS011;61387;48.112;8.616;2022-09-03T07:14:45;5.83;;;4.07;;
27744;SDS011;61387;48.112;8.616;2022-09-03T07:17:11;5.77;;;3.67;;
27744;SDS011;61387;48.112;8.616;2022-09-03T07:19:37;5.23;;;3.70;;
27744;SDS011;61387;48.112;8.616;2022-09-03T07:22:03;5.80;;;3.83;;
27744;SDS011;61387;48.112;8.616;2022-09-03T07:24:29;7.23;;;3.50;;
27744;SDS011;61387;48.112;8.616;2022-09-03T07:26:55;6.53;;;3.50;;
27744;SDS011;61387;48.112;8.616;2022-09-03T07:29:22;5.40;;;4.07;;
27744;SDS011;61387;48.112;8.616;2022-09-03T07:31:48;5.30;;;3.73;;
27744;SDS011;61387;48.112;8.616;2022-09-03T07:34:15;4.80;;;3.63;;
27744;SDS011;61387;48.112;8.616;2022-09-03T07:36:42;7.57;;;3.70;;
27744;SDS011;61387;48.112;8.616;2022-09-03T07:39:11;6.03;;;3.93;;
27744;SDS011;61387;48.112;8.616;2022-09-03T07:41:38;6.07;;;3.90;;
27744;SDS011;61387;48.112;8.616;2022-09-03T07:44:07;6.60;;;3.87;;
27744;SDS011;61387;48.112;8.616;2022-09-03T07:46:33;5.53;;;3.90;;
27744;SDS011;61387;48.112;8.616;2022-09-03T07:49:01;5.87;;;3.93;;
27744;SDS011;61387;48.112;8.616;2022-09-03T07:51:28;5.30;;;3.73;;
27744;SDS011;61387;48.112;8.616;2022-09-03T07:53:56;6.50;;;3.93;;
27744;SDS011;61387;48.112;8.616;2022-09-03T07:56:23;6.47;;;4.03;;
27744;SDS011;61387;48.112;8.616;2022-09-03T07:58:50;5.50;;;3.63;;
27744;SDS011;61387;48.112;8.616;2022-09-03T08:01:18;5.87;;;4.10;;
27744;SDS011;61387;48.112;8.616;2022-09-03T08:03:46;4.80;;;3.50;;
27744;SDS011;61387;48.112;8.616;2022-09-03T08:06:14;4.87;;;2.90;;
27744;SDS011;61387;48.112;8.616;2022-09-03T08:08:42;5.03;;;3.60;;
27744;SDS011;61387;48.112;8.616;2022-09-03T08:11:15;4.40;;;3.13;;
27744;SDS011;61387;48.112;8.616;2022-09-03T08:13:44;5.20;;;3.30;;
27744;SDS011;61387;48.112;8.616;2022-09-03T08:16:18;4.93;;;3.37;;
27744;SDS011;61387;48.112;8.616;2022-09-03T08:18:44;6.33;;;3.23;;
27744;SDS011;61387;48.112;8.616;2022-09-03T08:21:16;4.43;;;3.47;;
27744;SDS011;61387;48.112;8.616;2022-09-03T08:23:44;4.80;;;3.20;;
27744;SDS011;61387;48.112;8.616;2022-09-03T08:26:11;4.85;;;3.12;;
27744;SDS011;61387;48.112;8.616;2022-09-03T08:28:38;4.90;;;2.80;;
27744;SDS011;61387;48.112;8.616;2022-09-03T08:33:31;3.53;;;2.97;;
27744;SDS011;61387;48.112;8.616;2022-09-03T08:36:04;6.27;;;3.20;;
27744;SDS011;61387;48.112;8.616;2022-09-03T08:38:32;3.75;;;2.95;;
27744;SDS011;61387;48.112;8.616;2022-09-03T08:41:02;4.45;;;3.00;;
27744;SDS011;61387;48.112;8.616;2022-09-03T08:43:29;4.78;;;2.90;;
27744;SDS011;61387;48.112;8.616;2022-09-03T08:45:56;4.50;;;3.08;;
27744;SDS011;61387;48.112;8.616;2022-09-03T08:48:23;4.80;;;2.67;;
27744;SDS011;61387;48.112;8.616;2022-09-03T08:50:50;4.70;;;2.70;;
27744;SDS011;61387;48.112;8.616;2022-09-03T08:53:29;4.37;;;2.67;;
27744;SDS011;61387;48.112;8.616;2022-09-03T08:56:07;6.15;;;2.83;;
27744;SDS011;61387;48.112;8.616;2022-09-03T08:58:36;3.42;;;2.60;;
27744;SDS011;61387;48.112;8.616;2022-09-03T09:17:36;2.95;;;2.55;;
27744;SDS011;61387;48.112;8.616;2022-09-03T09:20:11;3.45;;;2.53;;
27744;SDS011;61387;48.112;8.616;2022-09-03T09:22:52;4.87;;;2.60;;
27744;SDS011;61387;48.112;8.616;2022-09-03T09:25:25;2.97;;;2.40;;
27744;SDS011;61387;48.112;8.616;2022-09-03T09:27:53;2.37;;;2.10;;
27744;SDS011;61387;48.112;8.616;2022-09-03T09:30:23;4.57;;;2.62;;
27744;SDS011;61387;48.112;8.616;2022-09-03T09:32:49;3.70;;;2.58;;
27744;SDS011;61387;48.112;8.616;2022-09-03T09:35:15;3.80;;;2.67;;
27744;SDS011;61387;48.112;8.616;2022-09-03T09:37:52;4.55;;;2.62;;
27744;SDS011;61387;48.112;8.616;2022-09-03T09:43:18;4.32;;;2.45;;
27744;SDS011;61387;48.112;8.616;2022-09-03T09:45:46;3.47;;;2.42;;
27744;SDS011;61387;48.112;8.616;2022-09-03T09:48:15;3.42;;;2.55;;
27744;SDS011;61387;48.112;8.616;2022-09-03T09:50:45;5.62;;;3.12;;
27744;SDS011;61387;48.112;8.616;2022-09-03T09:53:11;3.37;;;2.50;;
27744;SDS011;61387;48.112;8.616;2022-09-03T09:55:54;3.97;;;2.53;;
27744;SDS011;61387;48.112;8.616;2022-09-03T09:58:27;4.65;;;2.70;;
27744;SDS011;61387;48.112;8.616;2022-09-03T10:00:58;19.27;;;13.10;;
27744;SDS011;61387;48.112;8.616;2022-09-03T10:03:39;24.75;;;17.92;;
27744;SDS011;61387;48.112;8.616;2022-09-03T10:06:26;4.65;;;3.35;;
27744;SDS011;61387;48.112;8.616;2022-09-03T10:09:17;7.85;;;7.18;;
27744;SDS011;61387;48.112;8.616;2022-09-03T10:11:46;7.10;;;6.18;;
27744;SDS011;61387;48.112;8.616;2022-09-03T10:14:27;3.50;;;2.60;;
27744;SDS011;61387;48.112;8.616;2022-09-03T10:23:15;15.80;;;14.35;;
27744;SDS011;61387;48.112;8.616;2022-09-03T10:28:14;4.65;;;2.75;;
27744;SDS011;61387;48.112;8.616;2022-09-03T10:33:29;3.72;;;2.78;;
27744;SDS011;61387;48.112;8.616;2022-09-03T10:39:13;6.43;;;3.00;;
27744;SDS011;61387;48.112;8.616;2022-09-03T10:47:11;7.60;;;2.30;;
27744;SDS011;61387;48.112;8.616;2022-09-03T10:49:50;5.93;;;2.27;;
27744;SDS011;61387;48.112;8.616;2022-09-03T10:52:28;6.27;;;2.40;;
27744;SDS011;61387;48.112;8.616;2022-09-03T10:55:30;6.30;;;2.47;;
27744;SDS011;61387;48.112;8.616;2022-09-03T10:58:34;6.83;;;2.70;;
27744;SDS011;61387;48.112;8.616;2022-09-03T11:04:10;7.50;;;2.70;;
27744;SDS011;61387;48.112;8.616;2022-09-03T11:07:01;6.47;;;3.20;;
27744;SDS011;61387;48.112;8.616;2022-09-03T11:09:37;10.13;;;4.83;;
27744;SDS011;61387;48.112;8.616;2022-09-03T11:12:07;4.20;;;2.83;;
27744;SDS011;61387;48.112;8.616;2022-09-03T11:14:37;5.67;;;2.60;;
27744;SDS011;61387;48.112;8.616;2022-09-03T11:17:09;8.17;;;3.00;;
27744;SDS011;61387;48.112;8.616;2022-09-03T11:19:47;3.47;;;2.10;;
27744;SDS011;61387;48.112;8.616;2022-09-03T11:22:16;3.13;;;2.00;;
27744;SDS011;61387;48.112;8.616;2022-09-03T11:24:45;2.27;;;1.37;;
27744;SDS011;61387;48.112;8.616;2022-09-03T11:30:07;5.40;;;1.63;;
27744;SDS011;61387;48.112;8.616;2022-09-03T11:35:36;1.10;;;1.00;;
27744;SDS011;61387;48.112;8.616;2022-09-03T11:43:40;1.43;;;0.63;;
27744;SDS011;61387;48.112;8.616;2022-09-03T11:48:42;2.22;;;1.10;;
27744;SDS011;61387;48.112;8.616;2022-09-03T11:51:34;3.10;;;1.48;;
27744;SDS011;61387;48.112;8.616;2022-09-03T11:56:32;1.67;;;1.10;;
27744;SDS011;61387;48.112;8.616;2022-09-03T12:01:37;1.83;;;1.00;;
27744;SDS011;61387;48.112;8.616;2022-09-03T12:04:08;1.13;;;0.87;;
27744;SDS011;61387;48.112;8.616;2022-09-03T12:06:42;2.43;;;1.37;;
27744;SDS011;61387;48.112;8.616;2022-09-03T12:09:46;3.05;;;1.23;;
27744;SDS011;61387;48.112;8.616;2022-09-03T12:17:58;1.33;;;0.75;;
27744;SDS011;61387;48.112;8.616;2022-09-03T12:20:43;1.98;;;1.23;;
27744;SDS011;61387;48.112;8.616;2022-09-03T12:26:20;1.95;;;1.02;;
27744;SDS011;61387;48.112;8.616;2022-09-03T12:28:58;2.28;;;1.00;;
27744;SDS011;61387;48.112;8.616;2022-09-03T12:31:28;0.88;;;0.80;;
27744;SDS011;61387;48.112;8.616;2022-09-03T12:33:56;2.92;;;1.10;;
27744;SDS011;61387;48.112;8.616;2022-09-03T12:36:35;1.20;;;1.00;;
27744;SDS011;61387;48.112;8.616;2022-09-03T12:39:09;1.70;;;1.10;;
27744;SDS011;61387;48.112;8.616;2022-09-03T12:44:26;1.33;;;0.85;;
27744;SDS011;61387;48.112;8.616;2022-09-03T12:47:00;1.65;;;1.20;;
27744;SDS011;61387;48.112;8.616;2022-09-03T12:49:26;1.00;;;0.80;;
27744;SDS011;61387;48.112;8.616;2022-09-03T12:51:57;1.10;;;1.00;;
27744;SDS011;61387;48.112;8.616;2022-09-03T12:54:27;1.62;;;0.95;;
27744;SDS011;61387;48.112;8.616;2022-09-03T12:56:55;2.08;;;0.75;;
27744;SDS011;61387;48.112;8.616;2022-09-03T12:59:23;1.08;;;0.90;;
27744;SDS011;61387;48.112;8.616;2022-09-03T13:01:57;1.90;;;0.90;;
27744;SDS011;61387;48.112;8.616;2022-09-03T13:04:29;1.42;;;1.00;;
27744;SDS011;61387;48.112;8.616;2022-09-03T13:09:27;1.83;;;1.23;;
27744;SDS011;61387;48.112;8.616;2022-09-03T13:11:56;2.85;;;0.80;;
27744;SDS011;61387;48.112;8.616;2022-09-03T13:14:23;1.70;;;0.80;;
27744;SDS011;61387;48.112;8.616;2022-09-03T13:21:49;2.23;;;1.10;;
27744;SDS011;61387;48.112;8.616;2022-09-03T13:27:26;1.27;;;0.75;;
27744;SDS011;61387;48.112;8.616;2022-09-03T13:30:12;0.90;;;0.70;;
27744;SDS011;61387;48.112;8.616;2022-09-03T13:40:58;0.70;;;0.68;;
27744;SDS011;61387;48.112;8.616;2022-09-03T13:46:10;3.30;;;0.88;;
27744;SDS011;61387;48.112;8.616;2022-09-03T13:48:41;0.93;;;0.60;;
27744;SDS011;61387;48.112;8.616;2022-09-03T13:51:28;0.65;;;0.65;;
27744;SDS011;61387;48.112;8.616;2022-09-03T13:54:12;0.50;;;0.50;;
27744;SDS011;61387;48.112;8.616;2022-09-03T13:57:01;0.95;;;0.70;;
27744;SDS011;61387;48.112;8.616;2022-09-03T14:08:24;0.65;;;0.50;;
27744;SDS011;61387;48.112;8.616;2022-09-03T14:11:18;1.73;;;0.62;;
27744;SDS011;61387;48.112;8.616;2022-09-03T14:25:18;1.23;;;0.70;;
27744;SDS011;61387;48.112;8.616;2022-09-03T14:27:45;0.57;;;0.57;;
27744;SDS011;61387;48.112;8.616;2022-09-03T14:33:22;0.57;;;0.57;;
27744;SDS011;61387;48.112;8.616;2022-09-03T14:36:01;2.00;;;0.45;;
27744;SDS011;61387;48.112;8.616;2022-09-03T14:38:42;0.65;;;0.52;;
27744;SDS011;61387;48.112;8.616;2022-09-03T14:44:26;0.85;;;0.60;;
27744;SDS011;61387;48.112;8.616;2022-09-03T14:55:39;0.65;;;0.65;;
27744;SDS011;61387;48.112;8.616;2022-09-03T14:58:41;0.43;;;0.43;;
27744;SDS011;61387;48.112;8.616;2022-09-03T15:01:13;2.40;;;0.70;;
27744;SDS011;61387;48.112;8.616;2022-09-03T15:03:54;2.00;;;1.20;;
27744;SDS011;61387;48.112;8.616;2022-09-03T15:12:20;0.55;;;0.55;;
27744;SDS011;61387;48.112;8.616;2022-09-03T15:15:00;1.05;;;0.50;;
27744;SDS011;61387;48.112;8.616;2022-09-03T15:17:45;0.60;;;0.60;;
27744;SDS011;61387;48.112;8.616;2022-09-03T15:37:20;4.00;;;0.80;;
27744;SDS011;61387;48.112;8.616;2022-09-03T15:40:02;1.05;;;0.52;;
27744;SDS011;61387;48.112;8.616;2022-09-03T15:42:35;0.60;;;0.50;;
27744;SDS011;61387;48.112;8.616;2022-09-03T15:45:04;1.45;;;0.77;;
27744;SDS011;61387;48.112;8.616;2022-09-03T15:47:52;3.58;;;0.75;;
27744;SDS011;61387;48.112;8.616;2022-09-03T15:53:24;1.10;;;0.60;;
27744;SDS011;61387;48.112;8.616;2022-09-03T15:56:19;0.77;;;0.77;;
27744;SDS011;61387;48.112;8.616;2022-09-03T15:59:15;1.73;;;1.05;;
27744;SDS011;61387;48.112;8.616;2022-09-03T16:08:01;1.42;;;0.80;;
27744;SDS011;61387;48.112;8.616;2022-09-03T16:10:35;0.47;;;0.47;;
27744;SDS011;61387;48.112;8.616;2022-09-03T16:19:13;0.70;;;0.70;;
27744;SDS011;61387;48.112;8.616;2022-09-03T16:24:10;0.70;;;0.70;;
27744;SDS011;61387;48.112;8.616;2022-09-03T16:26:43;2.12;;;0.70;;
27744;SDS011;61387;48.112;8.616;2022-09-03T16:29:31;2.25;;;0.90;;
27744;SDS011;61387;48.112;8.616;2022-09-03T16:32:01;1.15;;;0.70;;
27744;SDS011;61387;48.112;8.616;2022-09-03T16:39:55;1.05;;;0.95;;
27744;SDS011;61387;48.112;8.616;2022-09-03T16:45:29;1.05;;;0.90;;
27744;SDS011;61387;48.112;8.616;2022-09-03T16:51:05;1.30;;;1.20;;
27744;SDS011;61387;48.112;8.616;2022-09-03T16:59:15;1.98;;;1.10;;
27744;SDS011;61387;48.112;8.616;2022-09-03T17:12:24;3.35;;;1.10;;
27744;SDS011;61387;48.112;8.616;2022-09-03T17:15:24;1.10;;;1.00;;
27744;SDS011;61387;48.112;8.616;2022-09-03T17:32:02;2.33;;;1.20;;
27744;SDS011;61387;48.112;8.616;2022-09-03T17:34:57;1.98;;;1.45;;
27744;SDS011;61387;48.112;8.616;2022-09-03T17:40:19;3.33;;;1.30;;
27744;SDS011;61387;48.112;8.616;2022-09-03T17:43:21;1.55;;;1.40;;
27744;SDS011;61387;48.112;8.616;2022-09-03T17:45:56;2.28;;;1.70;;
27744;SDS011;61387;48.112;8.616;2022-09-03T17:48:37;1.83;;;1.50;;
27744;SDS011;61387;48.112;8.616;2022-09-03T17:57:16;2.70;;;1.58;;
27744;SDS011;61387;48.112;8.616;2022-09-03T17:59:54;2.83;;;1.67;;
27744;SDS011;61387;48.112;8.616;2022-09-03T18:05:23;2.65;;;1.58;;
27744;SDS011;61387;48.112;8.616;2022-09-03T18:08:03;4.85;;;2.50;;
27744;SDS011;61387;48.112;8.616;2022-09-03T18:10:38;5.07;;;2.50;;
27744;SDS011;61387;48.112;8.616;2022-09-03T18:16:23;2.30;;;1.62;;
27744;SDS011;61387;48.112;8.616;2022-09-03T18:21:27;3.97;;;2.30;;
27744;SDS011;61387;48.112;8.616;2022-09-03T18:24:22;4.40;;;2.30;;
27744;SDS011;61387;48.112;8.616;2022-09-03T18:27:21;3.83;;;2.22;;
27744;SDS011;61387;48.112;8.616;2022-09-03T18:30:14;3.50;;;2.30;;
27744;SDS011;61387;48.112;8.616;2022-09-03T18:32:59;3.90;;;2.22;;
27744;SDS011;61387;48.112;8.616;2022-09-03T18:35:44;5.00;;;3.07;;
27744;SDS011;61387;48.112;8.616;2022-09-03T18:38:35;5.45;;;2.37;;
27744;SDS011;61387;48.112;8.616;2022-09-03T18:50:52;3.67;;;2.20;;
27744;SDS011;61387;48.112;8.616;2022-09-03T18:56:39;4.10;;;2.60;;
27744;SDS011;61387;48.112;8.616;2022-09-03T19:02:39;4.77;;;3.00;;
27744;SDS011;61387;48.112;8.616;2022-09-03T19:14:52;8.63;;;3.37;;
27744;SDS011;61387;48.112;8.616;2022-09-03T19:17:49;5.47;;;3.27;;
27744;SDS011;61387;48.112;8.616;2022-09-03T19:21:10;4.00;;;2.80;;
27744;SDS011;61387;48.112;8.616;2022-09-03T19:24:08;4.27;;;2.90;;
27744;SDS011;61387;48.112;8.616;2022-09-03T19:27:06;7.13;;;2.90;;
27744;SDS011;61387;48.112;8.616;2022-09-03T19:33:19;28.03;;;21.10;;
27744;SDS011;61387;48.112;8.616;2022-09-03T19:36:40;5.63;;;3.90;;
27744;SDS011;61387;48.112;8.616;2022-09-03T19:48:53;5.40;;;3.40;;
27744;SDS011;61387;48.112;8.616;2022-09-03T19:51:52;4.60;;;3.17;;
27744;SDS011;61387;48.112;8.616;2022-09-03T19:54:59;4.93;;;2.90;;
27744;SDS011;61387;48.112;8.616;2022-09-03T19:57:44;6.43;;;3.40;;
27744;SDS011;61387;48.112;8.616;2022-09-03T20:00:34;4.20;;;2.50;;
27744;SDS011;61387;48.112;8.616;2022-09-03T20:03:18;7.30;;;3.30;;
27744;SDS011;61387;48.112;8.616;2022-09-03T20:06:03;7.00;;;3.60;;
27744;SDS011;61387;48.112;8.616;2022-09-03T20:08:50;7.70;;;3.20;;
27744;SDS011;61387;48.112;8.616;2022-09-03T20:11:34;5.77;;;3.47;;
27744;SDS011;61387;48.112;8.616;2022-09-03T20:14:02;7.10;;;4.57;;
27744;SDS011;61387;48.112;8.616;2022-09-03T20:16:50;5.90;;;3.90;;
27744;SDS011;61387;48.112;8.616;2022-09-03T20:22:02;7.10;;;4.73;;
27744;SDS011;61387;48.112;8.616;2022-09-03T20:33:20;12.87;;;7.40;;
27744;SDS011;61387;48.112;8.616;2022-09-03T20:36:05;9.33;;;5.87;;
27744;SDS011;61387;48.112;8.616;2022-09-03T20:49:38;4.63;;;3.03;;
27744;SDS011;61387;48.112;8.616;2022-09-03T20:52:14;5.77;;;3.07;;
27744;SDS011;61387;48.112;8.616;2022-09-03T20:57:17;3.07;;;2.47;;
27744;SDS011;61387;48.112;8.616;2022-09-03T21:00:08;5.40;;;2.90;;
27744;SDS011;61387;48.112;8.616;2022-09-03T21:02:45;3.90;;;2.80;;
27744;SDS011;61387;48.112;8.616;2022-09-03T21:11:09;5.53;;;3.50;;